createdAt,value
2017-12-15T00:00:11.942Z,4.60
2017-12-15T00:02:39.559Z,4.60
2017-12-15T00:05:07.259Z,3.63
2017-12-15T00:07:34.959Z,4.07
2017-12-15T00:10:02.255Z,3.80
2017-12-15T00:12:29.553Z,3.73
2017-12-15T00:14:56.894Z,3.50
2017-12-15T00:17:24.564Z,4.20
2017-12-15T00:19:52.171Z,3.63
2017-12-15T00:22:19.839Z,4.40
2017-12-15T00:24:47.595Z,4.10
2017-12-15T00:27:15.299Z,3.77
2017-12-15T00:29:42.927Z,4.07
2017-12-15T00:32:10.588Z,4.07
2017-12-15T00:34:38.278Z,3.93
2017-12-15T00:37:05.574Z,4.03
2017-12-15T00:39:32.890Z,4.30
2017-12-15T00:42:00.219Z,3.90
2017-12-15T00:44:27.555Z,3.97
2017-12-15T00:46:55.255Z,4.30
2017-12-15T00:49:22.927Z,4.30
2017-12-15T00:51:50.590Z,3.60
2017-12-15T00:54:18.242Z,3.77
2017-12-15T00:56:45.917Z,3.60
2017-12-15T00:59:13.732Z,3.93
2017-12-15T01:01:41.434Z,3.95
2017-12-15T01:04:08.772Z,3.30
2017-12-15T01:06:36.075Z,4.07
2017-12-15T01:09:04.054Z,4.00
2017-12-15T01:11:31.366Z,3.53
2017-12-15T01:13:59.043Z,4.30
2017-12-15T01:16:26.559Z,4.37
2017-12-15T01:18:53.869Z,4.57
2017-12-15T01:21:21.226Z,3.90
2017-12-15T01:23:48.583Z,4.30
2017-12-15T01:26:16.318Z,3.83
2017-12-15T01:28:43.950Z,3.90
2017-12-15T01:31:11.298Z,4.10
2017-12-15T01:33:38.655Z,4.33
2017-12-15T01:36:05.966Z,4.57
2017-12-15T01:38:33.271Z,4.10
2017-12-15T01:41:00.631Z,4.47
2017-12-15T01:43:28.307Z,4.47
2017-12-15T01:45:55.987Z,4.23
2017-12-15T01:48:23.793Z,4.00
2017-12-15T01:50:51.170Z,4.43
2017-12-15T01:53:18.505Z,4.80
2017-12-15T01:55:46.264Z,4.57
2017-12-15T01:58:13.983Z,4.93
2017-12-15T02:00:41.665Z,4.67
2017-12-15T02:03:08.970Z,4.73
2017-12-15T02:05:36.314Z,4.70
2017-12-15T02:08:03.623Z,4.97
2017-12-15T02:10:30.999Z,4.50
2017-12-15T02:12:58.338Z,4.70
2017-12-15T02:15:25.642Z,4.93
2017-12-15T02:17:52.994Z,4.50
2017-12-15T02:20:20.341Z,4.47
2017-12-15T02:22:47.644Z,4.70
2017-12-15T02:25:14.968Z,4.30
2017-12-15T02:27:42.350Z,4.80
2017-12-15T02:30:09.651Z,4.57
2017-12-15T02:32:36.959Z,4.53
2017-12-15T02:35:04.318Z,4.60
2017-12-15T02:37:31.643Z,4.43
2017-12-15T02:39:59.335Z,4.60
2017-12-15T02:42:26.667Z,5.03
2017-12-15T02:44:54.082Z,4.20
2017-12-15T02:47:21.774Z,4.80
2017-12-15T02:49:49.162Z,5.47
2017-12-15T02:52:16.475Z,4.90
2017-12-15T02:54:44.231Z,5.50
2017-12-15T02:57:11.591Z,5.07
2017-12-15T02:59:38.956Z,4.80
2017-12-15T03:02:06.241Z,5.10
2017-12-15T03:04:33.575Z,5.50
2017-12-15T03:07:01.255Z,4.63
2017-12-15T03:09:28.572Z,5.20
2017-12-15T03:11:56.251Z,5.40
2017-12-15T03:14:23.914Z,5.40
2017-12-15T03:16:51.533Z,5.83
2017-12-15T03:19:19.195Z,5.30
2017-12-15T03:21:46.893Z,5.23
2017-12-15T03:24:14.571Z,5.63
2017-12-15T03:26:42.202Z,5.87
2017-12-15T03:29:09.536Z,5.80
2017-12-15T03:31:36.847Z,5.40
2017-12-15T03:34:04.158Z,6.07
2017-12-15T03:36:31.832Z,6.83
2017-12-15T03:38:59.522Z,7.00
2017-12-15T03:41:27.190Z,6.23
2017-12-15T03:43:54.516Z,5.50
2017-12-15T03:46:21.985Z,6.30
2017-12-15T03:48:49.611Z,6.00
2017-12-15T03:51:16.979Z,5.90
2017-12-15T03:53:44.679Z,6.10
2017-12-15T03:56:11.974Z,6.07
2017-12-15T03:58:39.315Z,5.50
2017-12-15T04:01:07.046Z,6.00
2017-12-15T04:53:15.571Z,5.10
2017-12-15T04:55:42.911Z,5.60
2017-12-15T04:58:10.250Z,5.57
2017-12-15T05:00:37.582Z,4.90
2017-12-15T05:03:04.919Z,5.70
2017-12-15T05:05:32.270Z,7.70
2017-12-15T05:07:59.641Z,5.40
2017-12-15T05:10:26.947Z,5.27
2017-12-15T05:12:54.302Z,4.80
2017-12-15T05:15:21.630Z,6.10
2017-12-15T05:17:49.168Z,5.80
2017-12-15T05:20:16.491Z,6.63
2017-12-15T05:22:43.814Z,6.00
2017-12-15T05:25:11.206Z,6.80
2017-12-15T05:27:38.519Z,7.80
2017-12-15T05:30:06.167Z,7.00
2017-12-15T05:32:33.470Z,7.93
2017-12-15T05:35:00.856Z,7.77
2017-12-15T05:37:28.166Z,7.13
2017-12-15T05:39:55.537Z,6.20
2017-12-15T05:42:22.831Z,5.70
2017-12-15T05:44:50.282Z,6.43
2017-12-15T05:47:17.632Z,6.37
2017-12-15T05:49:44.939Z,6.10
2017-12-15T05:52:12.285Z,6.03
2017-12-15T05:54:40.108Z,5.00
2017-12-15T05:57:07.836Z,5.90
2017-12-15T05:59:35.169Z,5.10
2017-12-15T06:02:02.868Z,5.57
2017-12-15T06:04:30.623Z,6.63
2017-12-15T06:06:58.206Z,5.97
2017-12-15T06:09:25.972Z,5.30
2017-12-15T06:11:53.739Z,5.67
2017-12-15T06:14:21.209Z,5.30
2017-12-15T06:16:48.540Z,5.90
2017-12-15T06:24:46.396Z,6.40
2017-12-15T06:27:13.702Z,5.80
2017-12-15T06:29:41.380Z,5.90
2017-12-15T06:32:08.715Z,6.37
2017-12-15T06:34:36.291Z,6.20
2017-12-15T06:37:03.615Z,5.83
2017-12-15T06:39:31.334Z,5.87
2017-12-15T06:41:58.727Z,6.13
2017-12-15T06:44:26.041Z,6.00
2017-12-15T06:46:53.510Z,6.33
2017-12-15T06:49:21.350Z,6.30
2017-12-15T06:51:48.668Z,5.60
2017-12-15T06:54:15.973Z,5.80
2017-12-15T06:56:43.397Z,6.47
2017-12-15T06:59:10.705Z,6.03
2017-12-15T07:01:38.014Z,5.80
2017-12-15T07:04:05.780Z,6.13
2017-12-15T07:06:33.091Z,5.60
2017-12-15T07:09:00.466Z,6.70
2017-12-15T07:11:28.147Z,6.90
2017-12-15T07:13:55.450Z,6.23
2017-12-15T07:16:23.040Z,6.00
2017-12-15T07:18:50.361Z,6.03
2017-12-15T07:21:17.672Z,6.73
2017-12-15T07:23:45.061Z,6.20
2017-12-15T07:26:12.372Z,6.37
2017-12-15T07:28:39.687Z,6.93
2017-12-15T07:31:07.041Z,6.17
2017-12-15T07:33:34.349Z,6.70
2017-12-15T07:36:01.707Z,6.60
2017-12-15T07:38:29.123Z,6.67
2017-12-15T07:40:56.425Z,6.17
2017-12-15T07:43:23.767Z,6.30
2017-12-15T07:45:51.211Z,6.30
2017-12-15T07:48:18.536Z,6.20
2017-12-15T07:50:45.846Z,6.60
2017-12-15T07:53:13.219Z,6.63
2017-12-15T07:55:40.577Z,6.30
2017-12-15T07:58:07.920Z,6.67
2017-12-15T08:00:35.269Z,6.53
2017-12-15T08:03:02.582Z,7.00
2017-12-15T08:05:30.000Z,7.00
2017-12-15T08:07:57.310Z,6.43
2017-12-15T08:10:24.625Z,6.00
2017-12-15T08:12:52.064Z,6.30
2017-12-15T08:15:19.570Z,6.20
2017-12-15T08:17:46.874Z,6.30
2017-12-15T08:20:14.212Z,6.77
2017-12-15T08:22:41.547Z,6.17
2017-12-15T08:25:09.190Z,6.73
2017-12-15T08:27:36.551Z,7.10
2017-12-15T08:30:03.879Z,6.30
2017-12-15T08:32:31.258Z,7.10
2017-12-15T08:34:58.619Z,6.13
2017-12-15T08:37:25.950Z,6.20
2017-12-15T08:39:53.726Z,6.27
2017-12-15T08:42:21.166Z,6.83
2017-12-15T08:44:48.843Z,7.13
2017-12-15T08:47:16.504Z,6.30
2017-12-15T08:49:44.046Z,6.23
2017-12-15T08:52:11.380Z,6.93
2017-12-15T08:54:38.691Z,7.10
2017-12-15T08:57:06.376Z,6.83
2017-12-15T08:59:33.836Z,7.30
2017-12-15T09:02:01.258Z,6.33
2017-12-15T09:04:28.606Z,6.10
2017-12-15T09:06:55.934Z,6.67
2017-12-15T09:09:23.242Z,6.53
2017-12-15T09:11:50.910Z,6.50
2017-12-15T09:14:18.233Z,7.10
2017-12-15T09:16:45.538Z,6.77
2017-12-15T09:19:12.884Z,6.70
2017-12-15T09:21:40.206Z,7.20
2017-12-15T09:24:07.855Z,7.17
2017-12-15T09:26:35.211Z,6.80
2017-12-15T09:29:02.518Z,6.87
2017-12-15T09:31:29.920Z,6.37
2017-12-15T09:33:57.247Z,6.63
2017-12-15T09:36:24.987Z,7.37
2017-12-15T09:38:52.410Z,7.17
2017-12-15T09:41:20.123Z,7.03
2017-12-15T09:43:47.651Z,7.23
2017-12-15T09:46:15.076Z,7.50
2017-12-15T09:48:42.442Z,7.30
2017-12-15T09:51:10.090Z,6.70
2017-12-15T09:53:37.741Z,7.13
2017-12-15T09:56:05.124Z,7.37
2017-12-15T09:58:32.779Z,7.10
2017-12-15T10:01:00.530Z,7.73
2017-12-15T10:03:27.916Z,7.20
2017-12-15T10:05:55.639Z,7.43
2017-12-15T10:08:23.027Z,7.53
2017-12-15T10:10:50.721Z,7.17
2017-12-15T10:13:18.027Z,6.67
2017-12-15T10:15:45.451Z,7.63
2017-12-15T10:18:12.831Z,8.17
2017-12-15T10:20:40.139Z,7.57
2017-12-15T10:23:07.453Z,8.13
2017-12-15T10:25:35.146Z,8.70
2017-12-15T10:28:02.454Z,7.30
2017-12-15T10:30:29.798Z,8.40
2017-12-15T10:32:57.467Z,8.67
2017-12-15T10:35:24.782Z,9.73
2017-12-15T10:37:52.532Z,9.40
2017-12-15T10:40:19.842Z,10.37
2017-12-15T10:42:47.153Z,9.80
2017-12-15T10:45:14.890Z,9.63
2017-12-15T10:47:42.519Z,9.23
2017-12-15T11:04:18.126Z,10.50
2017-12-15T11:06:46.413Z,11.00
2017-12-15T11:09:14.619Z,11.80
2017-12-15T11:11:42.944Z,11.07
2017-12-15T11:14:11.525Z,12.37
2017-12-15T11:16:39.616Z,11.33
2017-12-15T11:19:07.903Z,10.50
2017-12-15T11:21:36.570Z,10.80
2017-12-15T11:24:04.658Z,11.47
2017-12-15T11:26:32.785Z,10.73
2017-12-15T11:29:01.599Z,11.30
2017-12-15T11:31:30.110Z,12.00
2017-12-15T11:33:57.455Z,13.00
2017-12-15T11:36:24.857Z,12.37
2017-12-15T11:38:52.484Z,11.37
2017-12-15T11:41:19.846Z,10.23
2017-12-15T11:43:47.180Z,11.70
2017-12-15T11:46:14.567Z,12.20
2017-12-15T11:48:42.248Z,12.57
2017-12-15T11:51:09.693Z,13.13
2017-12-15T11:53:37.331Z,11.90
2017-12-15T11:56:04.805Z,13.07
2017-12-15T11:58:32.451Z,12.50
2017-12-15T12:00:59.785Z,12.63
2017-12-15T12:03:27.494Z,12.03
2017-12-15T12:05:55.134Z,11.83
2017-12-15T12:08:22.446Z,12.07
2017-12-15T12:10:50.175Z,11.87
2017-12-15T12:13:17.912Z,13.47
2017-12-15T12:15:45.247Z,12.97
2017-12-15T12:18:12.603Z,12.37
2017-12-15T12:20:40.280Z,11.07
2017-12-15T12:23:07.592Z,11.80
2017-12-15T12:25:34.967Z,10.80
2017-12-15T12:28:02.346Z,10.10
2017-12-15T12:30:29.815Z,10.93
2017-12-15T12:32:57.459Z,11.80
2017-12-15T12:35:24.793Z,9.47
2017-12-15T12:37:52.148Z,11.33
2017-12-15T12:40:19.461Z,10.50
2017-12-15T12:42:46.981Z,12.30
2017-12-15T12:45:14.334Z,15.43
2017-12-15T12:47:41.662Z,12.30
2017-12-15T12:50:09.080Z,12.17
2017-12-15T12:52:36.450Z,12.97
2017-12-15T12:55:03.763Z,12.10
2017-12-15T12:57:31.078Z,11.00
2017-12-15T12:59:58.848Z,10.60
2017-12-15T13:02:26.163Z,10.20
2017-12-15T13:04:53.779Z,11.00
2017-12-15T13:07:21.199Z,10.53
2017-12-15T13:09:48.535Z,10.30
2017-12-15T13:12:16.159Z,9.87
2017-12-15T13:14:43.545Z,10.60
2017-12-15T13:17:11.172Z,10.50
2017-12-15T13:19:38.490Z,9.67
2017-12-15T13:22:05.918Z,11.00
2017-12-15T13:24:33.567Z,10.47
2017-12-15T13:27:01.237Z,8.73
2017-12-15T13:29:28.860Z,8.77
2017-12-15T13:31:56.527Z,9.23
2017-12-15T13:34:24.004Z,8.70
2017-12-15T13:36:51.492Z,9.10
2017-12-15T13:39:18.807Z,10.37
2017-12-15T13:41:46.572Z,9.67
2017-12-15T13:44:14.230Z,10.65
2017-12-15T13:46:41.550Z,10.47
2017-12-15T13:49:09.283Z,12.27
2017-12-15T13:51:36.619Z,12.47
2017-12-15T13:54:04.259Z,12.47
2017-12-15T13:56:31.612Z,13.30
2017-12-15T13:58:58.926Z,12.60
2017-12-15T14:01:26.351Z,15.53
2017-12-15T14:03:54.075Z,15.43
2017-12-15T14:06:21.452Z,16.20
2017-12-15T14:08:49.102Z,16.33
2017-12-15T14:11:16.479Z,16.10
2017-12-15T14:13:44.127Z,18.87
2017-12-15T14:16:11.787Z,19.60
2017-12-15T14:18:39.474Z,19.87
2017-12-15T14:21:07.099Z,18.87
2017-12-15T14:23:34.418Z,20.67
2017-12-15T14:26:02.162Z,18.13
2017-12-15T14:28:29.482Z,18.63
2017-12-15T14:30:56.795Z,19.97
2017-12-15T14:33:24.309Z,19.10
2017-12-15T14:35:51.822Z,21.77
2017-12-15T14:38:19.408Z,19.77
2017-12-15T14:40:46.842Z,19.80
2017-12-15T14:43:14.226Z,19.63
2017-12-15T14:45:41.942Z,20.67
2017-12-15T14:48:09.654Z,20.70
2017-12-15T14:50:37.316Z,20.27
2017-12-15T14:53:05.217Z,20.17
2017-12-15T14:55:32.964Z,21.27
2017-12-15T14:58:00.607Z,20.37
2017-12-15T15:00:28.291Z,20.07
2017-12-15T15:02:55.910Z,19.23
2017-12-15T15:05:23.222Z,20.60
2017-12-15T15:07:50.615Z,21.10
2017-12-15T15:10:18.294Z,20.37
2017-12-15T15:12:45.632Z,19.53
2017-12-15T15:15:12.997Z,20.60
2017-12-15T15:17:40.359Z,21.57
2017-12-15T15:20:07.674Z,19.43
2017-12-15T15:22:35.103Z,20.70
2017-12-15T15:25:02.417Z,20.73
2017-12-15T15:27:29.806Z,21.23
2017-12-15T15:29:57.447Z,19.30
2017-12-15T15:32:24.767Z,21.77
2017-12-15T15:34:52.188Z,20.13
2017-12-15T15:37:19.807Z,20.90
2017-12-15T15:39:47.122Z,20.30
2017-12-15T15:42:14.858Z,20.50
2017-12-15T15:44:42.474Z,20.20
2017-12-15T15:47:09.796Z,21.33
2017-12-15T15:49:37.155Z,20.63
2017-12-15T15:52:04.475Z,20.43
2017-12-15T15:54:32.097Z,23.00
2017-12-15T15:56:59.451Z,19.90
2017-12-15T15:59:26.763Z,21.03
2017-12-15T16:01:54.087Z,20.17
2017-12-15T16:04:21.811Z,22.07
2017-12-15T16:06:49.215Z,21.57
2017-12-15T16:09:16.847Z,21.33
2017-12-15T16:11:44.206Z,21.97
2017-12-15T16:14:11.543Z,20.13
2017-12-15T16:16:38.879Z,20.77
2017-12-15T16:19:06.411Z,21.40
2017-12-15T16:21:33.723Z,22.20
2017-12-15T16:24:01.059Z,21.80
2017-12-15T16:26:29.123Z,21.53
2017-12-15T16:28:56.446Z,21.30
2017-12-15T16:31:23.764Z,22.10
2017-12-15T16:33:51.634Z,21.70
2017-12-15T16:36:19.283Z,20.57
2017-12-15T16:38:46.598Z,21.50
2017-12-15T16:41:13.939Z,20.70
2017-12-15T16:43:41.276Z,23.03
2017-12-15T16:46:08.963Z,21.87
2017-12-15T16:48:36.279Z,22.20
2017-12-15T16:51:03.731Z,22.50
2017-12-15T16:53:31.244Z,21.70
2017-12-15T16:55:58.938Z,22.40
2017-12-15T16:58:26.255Z,22.60
2017-12-15T17:00:53.685Z,21.93
2017-12-15T17:03:21.319Z,21.40
2017-12-15T17:05:49.070Z,22.20
2017-12-15T17:08:16.529Z,22.77
2017-12-15T17:10:43.839Z,22.80
2017-12-15T17:13:11.196Z,22.77
2017-12-15T17:15:38.511Z,22.67
2017-12-15T17:18:05.888Z,24.10
2017-12-15T17:20:33.280Z,23.93
2017-12-15T17:23:00.598Z,23.23
2017-12-15T17:25:27.979Z,22.53
2017-12-15T17:27:55.519Z,23.60
2017-12-15T17:30:22.918Z,24.10
2017-12-15T17:32:50.246Z,23.20
2017-12-15T17:35:17.683Z,22.37
2017-12-15T17:37:45.035Z,22.63
2017-12-15T17:40:13.138Z,23.00
2017-12-15T17:42:40.515Z,23.17
2017-12-15T17:45:07.843Z,23.50
2017-12-15T17:47:35.174Z,22.93
2017-12-15T17:50:02.518Z,22.97
2017-12-15T17:52:29.839Z,23.57
2017-12-15T17:54:57.222Z,24.50
2017-12-15T17:57:24.616Z,22.40
2017-12-15T17:59:51.937Z,21.93
2017-12-15T18:02:19.606Z,21.43
2017-12-15T18:04:46.925Z,22.47
2017-12-15T18:07:14.254Z,23.20
2017-12-15T18:09:41.986Z,21.87
2017-12-15T18:12:09.302Z,24.73
2017-12-15T18:14:36.963Z,22.63
2017-12-15T18:17:04.643Z,24.43
2017-12-15T18:19:32.279Z,26.17
2017-12-15T18:21:59.695Z,23.80
2017-12-15T18:24:27.030Z,23.47
2017-12-15T18:26:54.370Z,27.40
2017-12-15T18:29:21.755Z,22.80
2017-12-15T18:31:49.081Z,24.97
2017-12-15T18:34:17.374Z,29.20
2017-12-15T18:36:44.770Z,25.13
2017-12-15T18:39:12.131Z,26.53
2017-12-15T18:41:39.463Z,26.67
2017-12-15T18:44:06.819Z,28.90
2017-12-15T18:46:34.176Z,25.43
2017-12-15T18:49:01.507Z,26.80
2017-12-15T18:51:28.857Z,26.37
2017-12-15T18:53:56.163Z,25.40
2017-12-15T18:56:23.494Z,25.33
2017-12-15T18:58:50.854Z,26.23
2017-12-15T19:01:18.183Z,24.57
2017-12-15T19:03:45.554Z,28.33
2017-12-15T19:06:12.879Z,28.20
2017-12-15T19:08:40.194Z,27.20
2017-12-15T19:11:07.588Z,26.23
2017-12-15T19:13:34.911Z,26.50
2017-12-15T19:16:02.245Z,25.97
2017-12-15T19:18:29.611Z,27.30
2017-12-15T19:20:57.462Z,29.53
2017-12-15T19:23:24.835Z,29.23
2017-12-15T19:25:52.713Z,26.67
2017-12-15T19:28:20.607Z,26.03
2017-12-15T19:30:47.939Z,27.27
2017-12-15T19:33:15.263Z,25.70
2017-12-15T19:35:42.615Z,26.90
2017-12-15T19:38:09.940Z,26.30
2017-12-15T19:40:37.266Z,26.23
2017-12-15T19:43:04.625Z,40.90
2017-12-15T19:45:31.989Z,30.90
2017-12-15T19:47:59.626Z,30.23
2017-12-15T19:50:27.093Z,32.60
2017-12-15T19:52:54.455Z,29.67
2017-12-15T19:55:21.771Z,31.80
2017-12-15T19:57:49.156Z,25.57
2017-12-15T20:00:16.521Z,29.47
2017-12-15T20:02:43.878Z,27.30
2017-12-15T20:05:11.191Z,26.07
2017-12-15T20:07:38.562Z,30.37
2017-12-15T20:10:05.921Z,27.67
2017-12-15T20:12:33.223Z,27.30
2017-12-15T20:15:00.596Z,26.50
2017-12-15T20:17:27.910Z,25.97
2017-12-15T20:19:55.240Z,26.20
2017-12-15T20:22:22.686Z,26.50
2017-12-15T20:24:50.034Z,26.80
2017-12-15T20:27:17.379Z,27.10
2017-12-15T20:29:44.790Z,26.53
2017-12-15T20:32:12.146Z,25.93
2017-12-15T20:34:39.464Z,26.17
2017-12-15T20:37:06.843Z,26.17
2017-12-15T20:39:34.191Z,24.83
2017-12-15T20:42:01.546Z,27.17
2017-12-15T20:44:28.879Z,26.70
2017-12-15T20:46:56.249Z,32.00
2017-12-15T20:49:23.591Z,27.10
2017-12-15T20:51:50.924Z,29.30
2017-12-15T20:54:18.424Z,25.27
2017-12-15T20:56:45.747Z,24.90
2017-12-15T20:59:13.122Z,30.20
2017-12-15T21:01:40.524Z,29.20
2017-12-15T21:04:07.861Z,31.90
2017-12-15T21:06:35.177Z,25.93
2017-12-15T21:09:02.562Z,26.27
2017-12-15T21:11:29.894Z,27.23
2017-12-15T21:13:57.320Z,25.40
2017-12-15T21:16:24.723Z,24.37
2017-12-15T21:18:52.031Z,24.73
2017-12-15T21:21:19.346Z,26.60
2017-12-15T21:23:46.711Z,27.00
2017-12-15T21:26:14.027Z,28.87
2017-12-15T21:28:41.385Z,30.30
2017-12-15T21:31:09.932Z,25.93
2017-12-15T21:33:37.240Z,30.87
2017-12-15T21:36:04.587Z,32.10
2017-12-15T21:38:31.912Z,28.53
2017-12-15T21:40:59.256Z,27.07
2017-12-15T21:43:26.654Z,24.43
2017-12-15T21:45:53.997Z,25.80
2017-12-15T21:48:21.394Z,26.70
2017-12-15T21:50:48.710Z,30.03
2017-12-15T21:53:16.121Z,29.90
2017-12-15T21:55:43.499Z,27.47
2017-12-15T21:58:10.903Z,25.80
2017-12-15T22:00:38.241Z,24.90
2017-12-15T22:03:05.643Z,24.77
2017-12-15T22:05:33.196Z,24.77
2017-12-15T22:08:00.902Z,22.47
2017-12-15T22:10:28.290Z,22.83
2017-12-15T22:12:55.621Z,23.37
2017-12-15T22:15:22.959Z,23.50
2017-12-15T22:17:50.327Z,21.20
2017-12-15T22:20:17.667Z,20.30
2017-12-15T22:22:45.099Z,22.80
2017-12-15T22:25:12.436Z,21.03
2017-12-15T22:27:39.792Z,21.87
2017-12-15T22:30:07.206Z,23.67
2017-12-15T22:32:34.542Z,26.03
2017-12-15T22:35:01.906Z,28.60
2017-12-15T22:37:29.346Z,24.17
2017-12-15T22:39:56.736Z,24.10
2017-12-15T22:42:24.083Z,22.80
2017-12-15T22:44:51.529Z,27.40
2017-12-15T22:47:18.964Z,24.20
2017-12-15T22:49:46.404Z,22.67
2017-12-15T22:52:13.852Z,23.10
2017-12-15T22:54:41.202Z,23.30
2017-12-15T22:57:08.530Z,24.60
2017-12-15T22:59:35.914Z,22.90
2017-12-15T23:02:03.263Z,25.27
2017-12-15T23:04:30.622Z,22.53
2017-12-15T23:06:57.981Z,22.30
2017-12-15T23:09:25.294Z,22.40
2017-12-15T23:11:52.703Z,22.50
2017-12-15T23:14:20.158Z,20.17
2017-12-15T23:16:47.496Z,21.20
2017-12-15T23:19:14.865Z,21.70
2017-12-15T23:21:42.230Z,21.20
2017-12-15T23:24:09.645Z,19.80
2017-12-15T23:26:37.043Z,20.40
2017-12-15T23:29:04.403Z,20.37
2017-12-15T23:31:31.726Z,21.40
2017-12-15T23:33:59.187Z,21.20
2017-12-15T23:36:26.533Z,21.00
2017-12-15T23:38:53.886Z,19.77
2017-12-15T23:41:21.314Z,21.00
2017-12-15T23:43:48.691Z,20.23
2017-12-15T23:46:16.030Z,20.43
2017-12-15T23:48:43.432Z,19.20
2017-12-15T23:51:10.777Z,21.20
2017-12-15T23:53:38.096Z,21.97
2017-12-15T23:56:11.252Z,20.50
2017-12-15T23:58:38.571Z,21.00
